createdAt,value
2023-11-16T00:00:58.032Z,7.85
2023-11-16T00:03:44.973Z,9.05
2023-11-16T00:06:30.659Z,10.70
2023-11-16T00:09:16.309Z,9.18
2023-11-16T00:12:04.995Z,7.70
2023-11-16T00:14:50.406Z,12.93
2023-11-16T00:17:38.578Z,10.43
2023-11-16T00:20:24.477Z,8.88
2023-11-16T00:23:10.158Z,9.05
2023-11-16T00:25:56.565Z,8.27
2023-11-16T00:28:44.120Z,8.60
2023-11-16T00:31:31.641Z,9.65
2023-11-16T00:34:17.282Z,7.55
2023-11-16T00:37:06.979Z,7.78
2023-11-16T00:39:53.810Z,10.85
2023-11-16T00:42:38.820Z,9.55
2023-11-16T00:45:24.622Z,9.73
2023-11-16T00:48:10.666Z,9.65
2023-11-16T00:50:56.389Z,6.25
2023-11-16T00:53:44.125Z,7.65
2023-11-16T00:56:29.761Z,9.57
2023-11-16T00:59:15.800Z,8.45
2023-11-16T01:02:02.850Z,10.25
2023-11-16T01:04:48.301Z,7.78
2023-11-16T01:07:35.118Z,7.55
2023-11-16T01:10:25.215Z,8.02
2023-11-16T01:13:12.722Z,7.88
2023-11-16T01:18:51.865Z,6.97
2023-11-16T01:21:45.640Z,8.00
2023-11-16T01:24:36.350Z,11.90
2023-11-16T01:27:28.232Z,10.90
2023-11-16T01:30:14.705Z,6.93
2023-11-16T01:33:00.125Z,9.25
2023-11-16T01:35:45.967Z,11.57
2023-11-16T01:38:32.304Z,10.98
2023-11-16T01:41:19.284Z,9.05
2023-11-16T01:44:04.697Z,10.43
2023-11-16T01:46:51.814Z,9.90
2023-11-16T01:49:37.759Z,10.40
2023-11-16T01:52:23.336Z,8.40
2023-11-16T01:55:09.194Z,15.75
2023-11-16T01:57:55.785Z,13.05
2023-11-16T02:00:44.841Z,7.47
2023-11-16T02:03:30.962Z,10.48
2023-11-16T02:06:17.522Z,9.65
2023-11-16T02:09:03.550Z,7.88
2023-11-16T02:11:48.807Z,6.75
2023-11-16T02:14:33.760Z,9.02
2023-11-16T02:17:19.357Z,9.13
2023-11-16T02:20:08.248Z,7.72
2023-11-16T02:22:55.772Z,8.05
2023-11-16T02:28:31.896Z,7.60
2023-11-16T02:31:19.848Z,6.85
2023-11-16T02:34:04.969Z,8.55
2023-11-16T02:36:50.468Z,9.18
2023-11-16T02:39:36.026Z,7.07
2023-11-16T02:42:21.481Z,9.75
2023-11-16T02:45:08.101Z,10.10
2023-11-16T02:47:54.665Z,8.38
2023-11-16T02:50:39.927Z,8.00
2023-11-16T02:53:25.241Z,7.53
2023-11-16T02:56:12.444Z,12.30
2023-11-16T02:58:58.049Z,6.40
2023-11-16T03:01:43.614Z,10.75
2023-11-16T03:04:28.961Z,9.52
2023-11-16T03:07:26.808Z,11.02
2023-11-16T03:10:18.481Z,10.68
2023-11-16T03:13:05.166Z,9.13
2023-11-16T03:15:51.045Z,7.35
2023-11-16T03:18:37.547Z,8.50
2023-11-16T03:21:23.176Z,6.63
2023-11-16T03:24:10.468Z,8.77
2023-11-16T03:26:57.033Z,7.38
2023-11-16T03:29:43.909Z,7.95
2023-11-16T03:32:30.594Z,11.40
2023-11-16T03:35:17.190Z,10.95
2023-11-16T03:38:04.164Z,9.18
2023-11-16T03:40:50.545Z,10.23
2023-11-16T03:43:36.324Z,9.43
2023-11-16T03:46:22.029Z,9.82
2023-11-16T03:49:07.293Z,7.50
2023-11-16T03:51:52.726Z,7.70
2023-11-16T03:54:37.856Z,6.32
2023-11-16T03:57:23.032Z,10.68
2023-11-16T04:00:09.554Z,4.68
2023-11-16T04:02:59.909Z,8.00
2023-11-16T04:05:45.356Z,6.00
2023-11-16T04:08:30.892Z,10.00
2023-11-16T04:11:19.126Z,6.20
2023-11-16T04:14:05.900Z,7.10
2023-11-16T04:16:54.481Z,8.40
2023-11-16T04:19:40.129Z,5.93
2023-11-16T04:22:25.582Z,8.90
2023-11-16T04:25:26.944Z,5.72
2023-11-16T04:28:14.670Z,6.55
2023-11-16T04:31:00.133Z,7.95
2023-11-16T04:33:46.320Z,4.50
2023-11-16T04:36:33.468Z,6.72
2023-11-16T04:39:19.150Z,6.18
2023-11-16T04:42:04.749Z,7.32
2023-11-16T04:44:50.511Z,4.43
2023-11-16T04:47:39.050Z,6.57
2023-11-16T04:50:28.361Z,8.32
2023-11-16T04:53:13.574Z,5.57
2023-11-16T04:55:59.285Z,6.95
2023-11-16T04:58:46.436Z,5.15
2023-11-16T05:01:32.110Z,4.85
2023-11-16T05:04:18.142Z,5.72
2023-11-16T05:07:04.189Z,6.47
2023-11-16T05:09:52.077Z,7.28
2023-11-16T05:12:41.419Z,7.75
2023-11-16T05:15:26.821Z,5.45
2023-11-16T05:18:12.419Z,5.78
2023-11-16T05:21:02.635Z,5.72
2023-11-16T05:23:48.207Z,6.80
2023-11-16T05:26:33.897Z,5.07
2023-11-16T05:29:19.440Z,3.10
2023-11-16T05:32:05.920Z,4.15
2023-11-16T05:34:52.141Z,5.15
2023-11-16T05:37:38.613Z,3.50
2023-11-16T05:40:23.904Z,2.53
2023-11-16T05:43:09.734Z,5.68
2023-11-16T05:45:55.165Z,5.70
2023-11-16T05:48:40.703Z,3.65
2023-11-16T05:51:26.277Z,5.40
2023-11-16T05:54:11.801Z,5.93
2023-11-16T05:56:57.781Z,5.53
2023-11-16T05:59:43.255Z,6.00
2023-11-16T06:02:29.552Z,2.08
2023-11-16T06:05:16.554Z,2.88
2023-11-16T06:08:02.609Z,3.05
2023-11-16T06:10:48.663Z,4.45
2023-11-16T06:13:35.732Z,3.40
2023-11-16T06:16:23.402Z,3.55
2023-11-16T06:19:09.153Z,4.97
2023-11-16T06:21:55.397Z,4.50
2023-11-16T06:24:40.654Z,4.88
2023-11-16T06:27:25.840Z,2.38
2023-11-16T06:30:14.994Z,1.65
2023-11-16T06:33:01.444Z,5.20
2023-11-16T06:35:46.850Z,2.05
2023-11-16T06:38:32.181Z,2.80
2023-11-16T06:41:17.876Z,3.05
2023-11-16T06:44:06.938Z,3.63
2023-11-16T06:46:53.588Z,3.85
2023-11-16T06:49:39.257Z,2.67
2023-11-16T06:52:27.742Z,1.67
2023-11-16T06:55:15.033Z,1.85
2023-11-16T06:58:00.754Z,1.65
2023-11-16T07:00:51.522Z,4.07
2023-11-16T07:03:37.370Z,4.03
2023-11-16T07:06:23.030Z,3.03
2023-11-16T07:09:08.214Z,2.05
2023-11-16T07:11:55.067Z,1.42
2023-11-16T07:14:47.974Z,2.65
2023-11-16T07:17:40.005Z,1.63
2023-11-16T07:20:26.420Z,2.00
2023-11-16T07:23:12.946Z,3.25
2023-11-16T07:26:01.344Z,1.02
2023-11-16T07:28:49.455Z,1.05
2023-11-16T07:31:35.420Z,2.67
2023-11-16T07:34:21.409Z,0.73
2023-11-16T07:37:06.738Z,0.68
2023-11-16T07:39:52.699Z,2.70
2023-11-16T07:42:40.857Z,0.73
2023-11-16T07:45:27.740Z,4.30
2023-11-16T07:48:15.376Z,2.55
2023-11-16T07:51:00.960Z,1.77
2023-11-16T07:53:52.081Z,2.60
2023-11-16T07:56:38.178Z,1.63
2023-11-16T07:59:32.846Z,2.15
2023-11-16T08:02:18.804Z,2.78
2023-11-16T08:05:07.572Z,1.98
2023-11-16T08:07:53.927Z,1.25
2023-11-16T08:10:40.361Z,1.02
2023-11-16T08:13:25.720Z,1.33
2023-11-16T08:16:14.450Z,2.05
2023-11-16T08:18:59.737Z,1.65
2023-11-16T08:21:47.595Z,3.38
2023-11-16T08:24:33.299Z,2.75
2023-11-16T08:27:19.534Z,2.33
2023-11-16T08:30:08.907Z,1.92
2023-11-16T08:32:54.534Z,5.40
2023-11-16T08:35:40.301Z,0.82
2023-11-16T08:38:26.929Z,1.60
2023-11-16T08:41:16.544Z,2.33
2023-11-16T08:44:03.426Z,1.02
2023-11-16T08:46:54.323Z,2.30
2023-11-16T08:49:39.885Z,1.33
2023-11-16T08:52:26.297Z,2.97
2023-11-16T08:55:13.315Z,2.33
2023-11-16T08:57:58.535Z,2.85
2023-11-16T09:00:47.379Z,2.03
2023-11-16T09:03:35.582Z,2.60
2023-11-16T09:06:23.236Z,3.30
2023-11-16T09:09:31.688Z,1.55
2023-11-16T09:12:18.149Z,1.98
2023-11-16T09:15:03.860Z,0.85
2023-11-16T09:17:51.546Z,1.00
2023-11-16T09:20:37.204Z,1.83
2023-11-16T09:23:22.505Z,1.92
2023-11-16T09:26:11.383Z,1.30
2023-11-16T09:29:05.121Z,1.17
2023-11-16T09:31:53.518Z,1.27
2023-11-16T09:34:38.537Z,1.83
2023-11-16T09:37:27.275Z,2.42
2023-11-16T09:40:24.087Z,2.55
2023-11-16T09:43:18.823Z,5.22
2023-11-16T09:46:10.777Z,1.50
2023-11-16T09:48:57.010Z,2.78
2023-11-16T09:51:42.110Z,2.67
2023-11-16T09:54:30.653Z,1.85
2023-11-16T09:57:20.538Z,1.58
2023-11-16T10:00:20.133Z,1.60
2023-11-16T10:03:07.445Z,4.68
2023-11-16T10:05:56.344Z,2.05
2023-11-16T10:08:41.890Z,1.08
2023-11-16T10:11:27.462Z,0.98
2023-11-16T10:14:13.404Z,1.55
2023-11-16T10:17:00.289Z,2.05
2023-11-16T10:19:46.275Z,2.75
2023-11-16T10:22:32.023Z,1.98
2023-11-16T10:25:19.452Z,1.60
2023-11-16T10:28:24.542Z,3.55
2023-11-16T10:31:10.127Z,2.22
2023-11-16T10:33:57.291Z,1.10
2023-11-16T10:36:45.691Z,1.75
2023-11-16T10:39:32.595Z,1.65
2023-11-16T10:42:19.526Z,1.80
2023-11-16T10:45:07.569Z,2.80
2023-11-16T10:47:53.174Z,2.42
2023-11-16T10:50:38.217Z,2.22
2023-11-16T10:53:25.153Z,1.30
2023-11-16T10:56:13.305Z,4.53
2023-11-16T10:59:06.721Z,2.67
2023-11-16T11:01:52.088Z,0.93
2023-11-16T11:04:37.737Z,1.30
2023-11-16T11:07:27.297Z,5.07
2023-11-16T11:10:19.149Z,1.20
2023-11-16T11:13:06.628Z,2.47
2023-11-16T11:15:52.229Z,1.35
2023-11-16T11:18:50.044Z,4.97
2023-11-16T11:21:37.377Z,4.55
2023-11-16T11:24:23.620Z,3.92
2023-11-16T11:27:10.040Z,1.70
2023-11-16T11:29:56.203Z,4.28
2023-11-16T11:32:56.732Z,2.58
2023-11-16T11:35:50.021Z,1.67
2023-11-16T11:38:40.136Z,2.15
2023-11-16T11:41:25.806Z,1.38
2023-11-16T11:44:14.954Z,1.08
2023-11-16T11:47:02.726Z,0.75
2023-11-16T11:49:48.242Z,1.52
2023-11-16T11:52:35.955Z,1.17
2023-11-16T11:55:27.634Z,1.13
2023-11-16T11:58:13.265Z,1.67
2023-11-16T12:00:58.587Z,0.95
2023-11-16T12:04:00.915Z,2.10
2023-11-16T12:06:51.341Z,1.17
2023-11-16T12:09:51.484Z,0.80
2023-11-16T12:12:40.464Z,2.97
2023-11-16T12:15:26.378Z,3.03
2023-11-16T12:18:14.649Z,0.75
2023-11-16T12:21:01.107Z,1.65
2023-11-16T12:23:49.057Z,1.85
2023-11-16T12:29:24.334Z,0.93
2023-11-16T12:32:09.800Z,2.00
2023-11-16T12:34:55.274Z,1.20
2023-11-16T12:37:40.697Z,2.78
2023-11-16T12:40:26.120Z,5.65
2023-11-16T12:43:13.287Z,1.50
2023-11-16T12:46:00.066Z,4.20
2023-11-16T12:48:46.129Z,1.52
2023-11-16T12:51:31.586Z,5.13
2023-11-16T12:54:17.184Z,4.55
2023-11-16T12:57:05.179Z,1.80
2023-11-16T12:59:50.860Z,6.80
2023-11-16T13:02:37.953Z,3.10
2023-11-16T13:05:23.714Z,3.85
2023-11-16T13:08:10.248Z,2.35
2023-11-16T13:10:56.297Z,2.28
2023-11-16T13:13:41.964Z,0.90
2023-11-16T13:16:27.996Z,2.97
2023-11-16T13:19:13.113Z,2.92
2023-11-16T13:21:58.337Z,0.77
2023-11-16T13:24:43.601Z,1.58
2023-11-16T13:27:38.335Z,0.82
2023-11-16T13:30:29.401Z,1.48
2023-11-16T13:33:15.357Z,1.50
2023-11-16T13:36:01.357Z,2.67
2023-11-16T13:38:47.626Z,1.48
2023-11-16T13:41:32.770Z,4.30
2023-11-16T13:44:19.624Z,1.48
2023-11-16T13:47:05.463Z,1.83
2023-11-16T13:49:51.359Z,2.78
2023-11-16T13:52:39.492Z,1.45
2023-11-16T13:55:24.680Z,1.98
2023-11-16T13:58:10.002Z,2.30
2023-11-16T14:00:56.343Z,1.13
2023-11-16T14:03:41.765Z,2.85
2023-11-16T14:06:27.105Z,2.45
2023-11-16T14:09:14.920Z,2.75
2023-11-16T14:12:01.571Z,1.95
2023-11-16T14:14:47.094Z,2.80
2023-11-16T14:17:32.881Z,2.95
2023-11-16T14:20:18.564Z,2.50
2023-11-16T14:23:04.480Z,3.42
2023-11-16T14:25:50.763Z,1.75
2023-11-16T14:28:37.001Z,1.85
2023-11-16T14:31:22.586Z,3.20
2023-11-16T14:34:08.296Z,2.97
2023-11-16T14:36:55.709Z,2.83
2023-11-16T14:42:28.106Z,2.45
2023-11-16T14:45:13.726Z,3.35
2023-11-16T14:48:00.011Z,2.28
2023-11-16T14:50:45.452Z,5.80
2023-11-16T14:53:34.559Z,3.00
2023-11-16T14:56:21.517Z,1.50
2023-11-16T14:59:10.325Z,2.55
2023-11-16T15:01:55.812Z,2.55
2023-11-16T15:04:44.241Z,2.15
2023-11-16T15:07:29.974Z,1.98
2023-11-16T15:10:21.959Z,4.40
2023-11-16T15:13:08.066Z,6.32
2023-11-16T15:15:54.068Z,6.53
2023-11-16T15:18:40.624Z,4.72
2023-11-16T15:21:26.034Z,4.88
2023-11-16T15:24:12.768Z,6.32
2023-11-16T15:27:00.127Z,4.60
2023-11-16T15:29:47.050Z,6.03
2023-11-16T15:32:34.601Z,5.57
2023-11-16T15:38:05.839Z,5.50
2023-11-16T15:40:50.995Z,5.93
2023-11-16T15:43:36.922Z,4.50
2023-11-16T15:46:21.940Z,7.25
2023-11-16T15:49:07.967Z,5.95
2023-11-16T15:51:53.301Z,4.63
2023-11-16T15:54:38.626Z,6.03
2023-11-16T15:57:27.707Z,5.85
2023-11-16T16:00:20.479Z,6.80
2023-11-16T16:03:08.833Z,4.53
2023-11-16T16:05:54.782Z,4.68
2023-11-16T16:08:40.892Z,4.00
2023-11-16T16:11:29.863Z,4.43
2023-11-16T16:14:14.918Z,4.40
2023-11-16T16:17:02.028Z,7.53
2023-11-16T16:19:47.577Z,4.05
2023-11-16T16:22:33.316Z,4.05
2023-11-16T16:25:18.433Z,3.92
2023-11-16T16:28:04.757Z,6.45
2023-11-16T16:30:50.253Z,3.85
2023-11-16T16:33:36.285Z,6.93
2023-11-16T16:36:21.433Z,8.10
2023-11-16T16:39:11.587Z,9.18
2023-11-16T16:41:59.768Z,7.20
2023-11-16T16:44:45.189Z,8.55
2023-11-16T16:47:30.150Z,8.18
2023-11-16T16:50:16.182Z,8.25
2023-11-16T16:53:01.280Z,5.57
2023-11-16T16:55:46.786Z,8.30
2023-11-16T16:58:32.306Z,6.47
2023-11-16T17:01:18.258Z,7.38
2023-11-16T17:04:04.928Z,7.05
2023-11-16T17:06:50.389Z,8.45
2023-11-16T17:09:36.251Z,8.88
2023-11-16T17:12:22.086Z,7.00
2023-11-16T17:15:07.953Z,6.78
2023-11-16T17:17:53.140Z,8.90
2023-11-16T17:20:39.408Z,7.63
2023-11-16T17:23:24.655Z,9.63
2023-11-16T17:26:11.699Z,7.38
2023-11-16T17:28:59.654Z,7.32
2023-11-16T17:31:45.225Z,7.68
2023-11-16T17:34:32.978Z,7.10
2023-11-16T17:37:18.456Z,27.67
2023-11-16T17:40:08.689Z,35.78
2023-11-16T17:42:54.353Z,27.80
2023-11-16T17:45:40.222Z,57.17
2023-11-16T17:48:25.867Z,57.85
2023-11-16T17:51:11.247Z,71.07
2023-11-16T17:53:57.410Z,53.63
2023-11-16T17:56:46.565Z,52.17
2023-11-16T17:59:31.724Z,44.65
2023-11-16T18:02:17.680Z,41.55
2023-11-16T18:05:03.036Z,35.55
2023-11-16T18:07:48.732Z,34.28
2023-11-16T18:10:34.619Z,34.47
2023-11-16T18:13:19.944Z,26.90
2023-11-16T18:16:06.185Z,35.47
2023-11-16T18:18:52.372Z,31.15
2023-11-16T18:21:37.954Z,27.90
2023-11-16T18:24:23.283Z,22.27
2023-11-16T18:27:08.240Z,25.70
2023-11-16T18:29:53.987Z,25.52
2023-11-16T18:32:44.305Z,27.42
2023-11-16T18:35:31.081Z,22.10
2023-11-16T18:38:16.853Z,20.02
2023-11-16T18:41:02.792Z,19.75
2023-11-16T18:43:48.532Z,18.40
2023-11-16T18:46:36.977Z,19.60
2023-11-16T18:49:22.677Z,22.02
2023-11-16T18:52:09.456Z,18.30
2023-11-16T18:54:55.406Z,14.18
2023-11-16T18:57:41.126Z,16.35
2023-11-16T19:00:27.538Z,15.63
2023-11-16T19:03:16.319Z,12.68
2023-11-16T19:06:02.808Z,12.88
2023-11-16T19:08:48.439Z,15.23
2023-11-16T19:11:34.067Z,13.13
2023-11-16T19:14:23.289Z,14.48
2023-11-16T19:17:09.286Z,12.82
2023-11-16T19:19:55.537Z,13.93
2023-11-16T19:22:44.185Z,14.68
2023-11-16T19:25:34.061Z,12.70
2023-11-16T19:28:24.434Z,13.30
2023-11-16T19:31:09.704Z,15.15
2023-11-16T19:33:55.871Z,11.02
2023-11-16T19:36:43.693Z,13.95
2023-11-16T19:39:40.339Z,13.30
2023-11-16T19:42:30.252Z,14.60
2023-11-16T19:45:15.570Z,13.90
2023-11-16T19:48:01.576Z,13.00
2023-11-16T19:50:48.571Z,9.77
2023-11-16T19:53:34.497Z,8.70
2023-11-16T19:56:20.197Z,9.25
2023-11-16T19:59:05.987Z,12.68
2023-11-16T20:01:52.134Z,7.35
2023-11-16T20:04:39.918Z,11.20
2023-11-16T20:07:28.628Z,9.00
2023-11-16T20:10:16.669Z,7.75
2023-11-16T20:13:02.040Z,7.60
2023-11-16T20:15:47.290Z,7.45
2023-11-16T20:18:35.777Z,6.15
2023-11-16T20:21:22.589Z,7.70
2023-11-16T20:24:08.844Z,6.60
2023-11-16T20:26:55.653Z,5.85
2023-11-16T20:29:41.052Z,5.65
2023-11-16T20:32:26.812Z,6.57
2023-11-16T20:35:14.072Z,5.50
2023-11-16T20:37:59.609Z,5.88
2023-11-16T20:40:44.691Z,6.28
2023-11-16T20:43:30.353Z,7.07
2023-11-16T20:46:23.315Z,5.68
2023-11-16T20:49:08.806Z,6.00
2023-11-16T20:51:56.223Z,5.30
2023-11-16T20:54:44.461Z,5.15
2023-11-16T20:57:30.024Z,6.65
2023-11-16T21:00:21.818Z,5.50
2023-11-16T21:03:08.037Z,4.93
2023-11-16T21:05:53.447Z,5.53
2023-11-16T21:08:38.700Z,4.30
2023-11-16T21:11:23.988Z,5.07
2023-11-16T21:14:09.909Z,5.13
2023-11-16T21:16:55.522Z,6.43
2023-11-16T21:19:40.971Z,5.18
2023-11-16T21:22:27.809Z,4.65
2023-11-16T21:25:13.901Z,5.53
2023-11-16T21:27:59.499Z,4.18
2023-11-16T21:30:44.802Z,5.63
2023-11-16T21:33:30.471Z,5.50
2023-11-16T21:36:16.064Z,5.07
2023-11-16T21:39:01.469Z,5.07
2023-11-16T21:41:47.859Z,4.20
2023-11-16T21:44:32.977Z,6.15
2023-11-16T21:47:18.656Z,4.75
2023-11-16T21:50:06.138Z,4.82
2023-11-16T21:55:37.865Z,5.75
2023-11-16T21:58:23.153Z,5.35
2023-11-16T22:01:09.227Z,6.72
2023-11-16T22:03:55.020Z,6.45
2023-11-16T22:06:42.637Z,5.47
2023-11-16T22:12:13.970Z,5.43
2023-11-16T22:15:00.103Z,5.53
2023-11-16T22:17:46.978Z,7.05
2023-11-16T22:20:33.691Z,6.32
2023-11-16T22:23:19.642Z,5.40
2023-11-16T22:26:05.194Z,6.93
2023-11-16T22:28:52.366Z,5.95
2023-11-16T22:31:38.768Z,5.75
2023-11-16T22:34:24.057Z,5.22
2023-11-16T22:37:09.234Z,5.50
2023-11-16T22:39:54.675Z,5.65
2023-11-16T22:42:39.943Z,6.70
2023-11-16T22:45:26.509Z,5.32
2023-11-16T22:48:11.862Z,5.90
2023-11-16T22:50:57.154Z,5.65
2023-11-16T22:53:42.227Z,5.82
2023-11-16T22:56:27.692Z,5.68
2023-11-16T22:59:13.566Z,8.50
2023-11-16T23:02:02.260Z,6.55
2023-11-16T23:04:48.774Z,6.45
2023-11-16T23:07:38.746Z,5.38
2023-11-16T23:10:26.750Z,5.47
2023-11-16T23:13:13.621Z,5.68
2023-11-16T23:15:59.274Z,4.80
2023-11-16T23:18:47.150Z,6.15
2023-11-16T23:21:40.858Z,5.00
2023-11-16T23:24:28.268Z,4.90
2023-11-16T23:27:15.086Z,5.07
2023-11-16T23:30:00.908Z,4.82
2023-11-16T23:32:46.481Z,4.90
2023-11-16T23:35:31.559Z,7.10
2023-11-16T23:38:17.100Z,4.57
2023-11-16T23:41:02.733Z,4.07
2023-11-16T23:43:48.827Z,6.10
2023-11-16T23:46:35.993Z,5.53
2023-11-16T23:49:21.631Z,5.40
2023-11-16T23:52:09.484Z,5.55
2023-11-16T23:54:54.882Z,4.40
2023-11-16T23:57:41.262Z,4.43
